createdAt,value
2019-04-16T00:00:22.310Z,15.28
2019-04-16T00:02:56.771Z,14.25
2019-04-16T00:05:31.100Z,19.55
2019-04-16T00:08:26.536Z,18.07
2019-04-16T00:10:44.917Z,14.03
2019-04-16T00:13:16.415Z,12.45
2019-04-16T00:15:43.188Z,14.45
2019-04-16T00:18:09.963Z,14.25
2019-04-16T00:20:50.776Z,18.17
2019-04-16T00:23:25.438Z,13.30
2019-04-16T00:25:55.478Z,14.60
2019-04-16T00:28:20.889Z,15.43
2019-04-16T00:30:47.940Z,13.68
2019-04-16T00:33:14.920Z,13.43
2019-04-16T00:35:41.596Z,12.70
2019-04-16T00:38:08.688Z,16.27
2019-04-16T00:40:35.505Z,14.28
2019-04-16T00:43:02.374Z,15.50
2019-04-16T00:45:29.080Z,15.40
2019-04-16T00:47:55.747Z,13.83
2019-04-16T00:50:22.622Z,12.47
2019-04-16T00:52:49.308Z,15.43
2019-04-16T00:55:16.089Z,15.43
2019-04-16T00:57:42.900Z,14.20
2019-04-16T01:00:10.088Z,17.02
2019-04-16T01:02:38.763Z,17.23
2019-04-16T01:05:07.051Z,18.48
2019-04-16T01:07:33.804Z,14.13
2019-04-16T01:10:00.678Z,17.27
2019-04-16T01:12:27.414Z,16.23
2019-04-16T01:14:58.893Z,14.90
2019-04-16T01:17:22.933Z,15.10
2019-04-16T01:19:49.669Z,19.45
2019-04-16T01:22:16.851Z,13.50
2019-04-16T01:24:43.915Z,15.93
2019-04-16T01:27:10.654Z,15.13
2019-04-16T01:29:37.386Z,14.53
2019-04-16T01:32:12.148Z,15.20
2019-04-16T01:34:57.750Z,16.50
2019-04-16T01:37:36.417Z,16.23
2019-04-16T01:40:07.284Z,14.65
2019-04-16T01:42:34.055Z,17.07
2019-04-16T01:45:00.949Z,18.07
2019-04-16T01:47:27.893Z,17.20
2019-04-16T01:49:54.553Z,15.68
2019-04-16T01:52:21.359Z,17.90
2019-04-16T01:54:51.365Z,19.02
2019-04-16T01:57:17.540Z,18.12
2019-04-16T01:59:44.547Z,13.48
2019-04-16T02:02:14.801Z,17.32
2019-04-16T02:04:39.990Z,15.23
2019-04-16T02:07:06.774Z,12.65
2019-04-16T02:09:34.705Z,13.90
2019-04-16T02:12:02.294Z,16.75
2019-04-16T02:14:29.082Z,13.58
2019-04-16T02:16:57.640Z,16.62
2019-04-16T02:19:24.394Z,16.70
2019-04-16T02:21:52.145Z,13.10
2019-04-16T02:24:19.438Z,14.95
2019-04-16T02:26:46.167Z,13.88
2019-04-16T02:29:12.917Z,16.05
2019-04-16T02:31:39.728Z,17.57
2019-04-16T02:34:06.638Z,14.60
2019-04-16T02:36:33.417Z,14.45
2019-04-16T02:39:00.160Z,14.33
2019-04-16T02:41:27.111Z,15.30
2019-04-16T02:43:53.871Z,13.72
2019-04-16T02:46:20.739Z,17.52
2019-04-16T02:48:51.496Z,15.15
2019-04-16T02:51:39.541Z,16.07
2019-04-16T02:54:11.234Z,14.60
2019-04-16T02:56:51.606Z,13.32
2019-04-16T02:59:25.171Z,15.83
2019-04-16T03:02:10.333Z,15.95
2019-04-16T03:04:41.728Z,14.73
2019-04-16T03:07:08.525Z,15.53
2019-04-16T03:09:39.769Z,16.20
2019-04-16T03:12:03.657Z,13.05
2019-04-16T03:14:30.831Z,17.05
2019-04-16T03:17:15.448Z,15.25
2019-04-16T03:19:44.027Z,17.40
2019-04-16T03:22:11.017Z,17.10
2019-04-16T03:24:40.112Z,15.48
2019-04-16T03:27:06.212Z,14.25
2019-04-16T03:29:33.947Z,25.08
2019-04-16T03:32:00.787Z,15.98
2019-04-16T03:34:27.698Z,16.27
2019-04-16T03:36:54.452Z,17.95
2019-04-16T03:39:21.118Z,16.05
2019-04-16T03:41:47.766Z,15.88
2019-04-16T03:44:14.528Z,15.90
2019-04-16T03:46:46.308Z,16.80
2019-04-16T03:49:09.987Z,17.95
2019-04-16T03:51:37.864Z,20.55
2019-04-16T03:54:05.162Z,14.45
2019-04-16T03:56:32.051Z,15.10
2019-04-16T03:58:58.829Z,14.78
2019-04-16T04:01:25.692Z,16.40
2019-04-16T04:03:54.510Z,19.55
2019-04-16T04:06:21.187Z,15.15
2019-04-16T04:08:49.307Z,14.85
2019-04-16T04:11:16.439Z,15.68
2019-04-16T04:13:43.312Z,17.10
2019-04-16T04:16:10.088Z,15.65
2019-04-16T04:18:36.845Z,14.38
2019-04-16T04:21:03.643Z,14.83
2019-04-16T04:23:30.355Z,14.40
2019-04-16T04:25:57.102Z,14.03
2019-04-16T04:28:23.854Z,15.13
2019-04-16T04:30:50.654Z,14.73
2019-04-16T04:33:40.991Z,17.05
2019-04-16T04:36:06.237Z,18.37
2019-04-16T04:38:37.531Z,13.98
2019-04-16T04:41:03.137Z,15.08
2019-04-16T04:43:31.966Z,14.70
2019-04-16T04:45:58.376Z,15.55
2019-04-16T04:48:26.559Z,15.00
2019-04-16T04:50:53.247Z,15.72
2019-04-16T04:53:20.174Z,15.55
2019-04-16T04:55:47.103Z,18.45
2019-04-16T04:58:13.794Z,19.40
2019-04-16T05:00:41.189Z,15.53
2019-04-16T05:03:12.386Z,15.35
2019-04-16T05:05:40.380Z,17.02
2019-04-16T05:08:07.243Z,16.40
2019-04-16T05:10:36.689Z,16.23
2019-04-16T05:13:02.726Z,15.28
2019-04-16T05:15:30.094Z,14.85
2019-04-16T05:17:56.922Z,15.15
2019-04-16T05:20:23.706Z,12.23
2019-04-16T05:22:53.375Z,15.32
2019-04-16T05:25:19.141Z,17.42
2019-04-16T05:27:46.030Z,14.55
2019-04-16T05:30:13.377Z,16.12
2019-04-16T05:32:40.142Z,21.97
2019-04-16T05:35:10.196Z,17.48
2019-04-16T05:37:35.492Z,18.32
2019-04-16T05:40:04.824Z,18.35
2019-04-16T05:42:31.528Z,18.55
2019-04-16T05:44:58.419Z,20.95
2019-04-16T05:47:25.245Z,20.30
2019-04-16T05:49:54.455Z,19.90
2019-04-16T05:52:21.497Z,19.05
2019-04-16T05:55:05.140Z,22.62
2019-04-16T05:57:33.809Z,17.23
2019-04-16T06:00:03.393Z,18.92
2019-04-16T06:02:36.978Z,20.72
2019-04-16T06:05:05.140Z,17.07
2019-04-16T06:07:32.004Z,18.77
2019-04-16T06:09:59.005Z,15.98
2019-04-16T06:12:27.769Z,20.77
2019-04-16T06:14:59.007Z,15.38
2019-04-16T06:17:32.144Z,15.13
2019-04-16T06:20:03.307Z,16.35
2019-04-16T06:22:42.110Z,12.10
2019-04-16T06:25:27.366Z,15.40
2019-04-16T06:27:58.720Z,13.68
2019-04-16T06:30:33.024Z,17.45
2019-04-16T06:33:04.775Z,15.55
2019-04-16T06:35:50.521Z,12.78
2019-04-16T06:38:25.607Z,17.10
2019-04-16T06:40:54.318Z,17.87
2019-04-16T06:43:27.342Z,13.83
2019-04-16T06:46:05.527Z,13.60
2019-04-16T06:48:38.074Z,15.45
2019-04-16T06:51:11.756Z,16.85
2019-04-16T06:53:56.665Z,13.18
2019-04-16T06:56:41.163Z,18.75
2019-04-16T06:59:09.923Z,17.07
2019-04-16T07:01:54.910Z,14.60
2019-04-16T07:04:29.576Z,15.43
2019-04-16T07:07:11.346Z,12.37
2019-04-16T07:12:10.079Z,15.65
2019-04-16T07:14:37.158Z,13.25
2019-04-16T07:17:04.024Z,14.83
2019-04-16T07:19:30.974Z,17.50
2019-04-16T07:21:57.811Z,18.65
2019-04-16T07:24:30.055Z,16.62
2019-04-16T07:26:56.198Z,14.53
2019-04-16T07:29:33.412Z,16.60
2019-04-16T07:32:02.412Z,15.83
2019-04-16T07:34:31.287Z,16.25
2019-04-16T07:37:00.948Z,19.57
2019-04-16T07:39:39.518Z,19.15
2019-04-16T07:42:11.143Z,19.75
2019-04-16T07:44:55.942Z,20.82
2019-04-16T07:47:24.752Z,17.67
2019-04-16T07:50:01.418Z,20.88
2019-04-16T07:52:30.010Z,19.42
2019-04-16T07:55:01.206Z,19.02
2019-04-16T07:57:27.939Z,16.12
2019-04-16T07:59:54.607Z,17.92
2019-04-16T08:02:22.572Z,18.25
2019-04-16T08:04:49.622Z,19.20
2019-04-16T08:07:20.195Z,19.62
2019-04-16T08:09:45.109Z,16.12
2019-04-16T08:12:28.973Z,19.27
2019-04-16T08:14:40.492Z,19.98
2019-04-16T08:17:07.501Z,20.15
2019-04-16T08:19:37.211Z,21.02
2019-04-16T08:22:03.045Z,19.30
2019-04-16T08:24:43.545Z,21.75
2019-04-16T08:27:10.930Z,21.93
2019-04-16T08:29:37.787Z,18.45
2019-04-16T08:32:04.771Z,21.02
2019-04-16T08:34:31.529Z,24.32
2019-04-16T08:36:58.404Z,19.07
2019-04-16T08:39:25.575Z,17.77
2019-04-16T08:41:53.090Z,18.70
2019-04-16T08:44:19.976Z,20.65
2019-04-16T08:46:46.996Z,17.73
2019-04-16T08:49:15.258Z,20.43
2019-04-16T08:51:42.137Z,21.42
2019-04-16T08:54:09.009Z,18.45
2019-04-16T08:56:35.660Z,20.17
2019-04-16T08:59:02.429Z,21.33
2019-04-16T09:01:31.046Z,19.95
2019-04-16T09:04:01.311Z,23.98
2019-04-16T09:06:26.445Z,16.67
2019-04-16T09:09:11.145Z,20.48
2019-04-16T09:11:28.466Z,22.10
2019-04-16T09:13:59.497Z,17.67
2019-04-16T09:16:26.648Z,22.50
2019-04-16T09:18:57.912Z,21.42
2019-04-16T09:21:27.808Z,19.48
2019-04-16T09:24:12.095Z,19.17
2019-04-16T09:26:43.720Z,20.23
2019-04-16T09:29:23.453Z,21.12
2019-04-16T09:32:08.845Z,18.42
2019-04-16T09:34:40.481Z,17.73
2019-04-16T09:37:14.813Z,19.02
2019-04-16T09:39:52.664Z,19.92
2019-04-16T09:42:19.468Z,21.68
2019-04-16T09:44:46.350Z,22.25
2019-04-16T09:47:13.593Z,22.32
2019-04-16T09:49:40.593Z,19.90
2019-04-16T09:52:07.411Z,22.95
2019-04-16T09:54:34.148Z,21.42
2019-04-16T09:57:01.017Z,18.27
2019-04-16T09:59:29.684Z,19.67
2019-04-16T10:01:58.480Z,17.82
2019-04-16T10:04:25.205Z,18.92
2019-04-16T10:06:51.872Z,22.17
2019-04-16T10:09:21.702Z,18.20
2019-04-16T10:11:47.421Z,17.77
2019-04-16T10:14:14.257Z,19.92
2019-04-16T10:16:41.282Z,19.90
2019-04-16T10:19:09.108Z,19.10
2019-04-16T10:21:36.083Z,17.02
2019-04-16T10:24:19.932Z,18.57
2019-04-16T10:26:48.614Z,18.98
2019-04-16T10:29:17.251Z,19.07
2019-04-16T10:31:44.193Z,21.10
2019-04-16T10:34:10.867Z,18.77
2019-04-16T10:36:38.166Z,19.57
2019-04-16T10:39:17.041Z,22.55
2019-04-16T10:42:02.673Z,19.82
2019-04-16T10:44:34.139Z,17.90
2019-04-16T10:47:20.477Z,15.65
2019-04-16T10:49:49.298Z,15.30
2019-04-16T10:52:18.027Z,17.17
2019-04-16T10:54:46.668Z,16.45
2019-04-16T10:57:18.136Z,17.27
2019-04-16T10:59:47.075Z,16.60
2019-04-16T11:02:24.860Z,14.90
2019-04-16T11:04:53.503Z,15.43
2019-04-16T11:07:24.964Z,18.57
2019-04-16T11:09:51.816Z,14.65
2019-04-16T11:12:19.882Z,19.45
2019-04-16T11:14:46.826Z,15.40
2019-04-16T11:17:13.724Z,22.25
2019-04-16T11:19:40.479Z,15.63
2019-04-16T11:22:07.388Z,18.17
2019-04-16T11:24:34.139Z,14.95
2019-04-16T11:27:00.845Z,17.92
2019-04-16T11:29:27.645Z,17.15
2019-04-16T11:31:54.541Z,16.55
2019-04-16T11:34:21.258Z,14.70
2019-04-16T11:36:48.186Z,15.53
2019-04-16T11:39:15.026Z,16.57
2019-04-16T11:41:41.906Z,16.07
2019-04-16T11:44:15.694Z,14.45
2019-04-16T11:46:37.458Z,14.78
2019-04-16T11:49:04.195Z,13.50
2019-04-16T11:51:30.974Z,14.58
2019-04-16T11:53:57.740Z,15.15
2019-04-16T11:56:24.574Z,14.60
2019-04-16T11:58:51.339Z,14.20
2019-04-16T12:01:25.573Z,16.02
2019-04-16T12:03:57.061Z,17.42
2019-04-16T12:06:40.803Z,16.10
2019-04-16T12:09:25.969Z,16.48
2019-04-16T12:11:57.510Z,15.20
2019-04-16T12:14:32.435Z,15.48
2019-04-16T12:17:08.576Z,19.25
2019-04-16T12:19:37.652Z,15.55
2019-04-16T12:22:22.578Z,14.33
2019-04-16T12:25:03.376Z,17.12
2019-04-16T12:27:34.863Z,15.70
2019-04-16T12:30:20.667Z,16.00
2019-04-16T12:33:08.773Z,17.30
2019-04-16T12:35:36.141Z,17.07
2019-04-16T12:38:17.980Z,17.62
2019-04-16T12:40:59.207Z,18.10
2019-04-16T12:43:33.835Z,15.75
2019-04-16T12:46:08.215Z,13.62
2019-04-16T12:48:37.000Z,17.30
2019-04-16T12:51:23.825Z,14.10
2019-04-16T12:54:09.391Z,13.68
2019-04-16T12:56:41.360Z,18.30
2019-04-16T12:59:23.000Z,16.90
2019-04-16T13:02:12.104Z,13.75
2019-04-16T13:04:37.925Z,12.88
2019-04-16T13:07:06.775Z,12.30
2019-04-16T13:09:44.580Z,14.43
2019-04-16T13:12:32.698Z,15.72
2019-04-16T13:15:10.097Z,15.88
2019-04-16T13:17:44.594Z,12.53
2019-04-16T13:20:29.318Z,16.27
2019-04-16T13:22:56.395Z,12.80
2019-04-16T13:25:24.955Z,12.25
2019-04-16T13:27:52.653Z,13.43
2019-04-16T13:30:19.455Z,13.93
2019-04-16T13:32:46.254Z,13.72
2019-04-16T13:35:13.049Z,14.73
2019-04-16T13:38:22.868Z,14.33
2019-04-16T13:40:50.211Z,16.05
2019-04-16T13:43:25.889Z,13.80
2019-04-16T13:45:57.923Z,13.40
2019-04-16T13:48:42.341Z,13.13
2019-04-16T13:51:15.134Z,18.82
2019-04-16T13:53:41.597Z,15.72
2019-04-16T13:56:22.662Z,18.98
2019-04-16T13:58:51.510Z,15.57
2019-04-16T14:01:21.913Z,13.08
2019-04-16T14:03:48.748Z,12.90
2019-04-16T14:06:15.479Z,11.38
2019-04-16T14:08:42.271Z,12.65
2019-04-16T14:11:09.622Z,14.93
2019-04-16T14:13:36.420Z,11.70
2019-04-16T14:16:04.751Z,12.93
2019-04-16T14:18:32.741Z,16.12
2019-04-16T14:21:00.072Z,16.75
2019-04-16T14:23:26.911Z,12.55
2019-04-16T14:25:53.642Z,10.93
2019-04-16T14:28:20.413Z,12.20
2019-04-16T14:30:48.433Z,12.40
2019-04-16T14:33:17.167Z,11.65
2019-04-16T14:35:43.981Z,11.48
2019-04-16T14:38:12.674Z,14.90
2019-04-16T14:40:39.717Z,14.40
2019-04-16T14:43:08.105Z,18.62
2019-04-16T14:45:56.820Z,13.32
2019-04-16T14:48:10.210Z,18.02
2019-04-16T14:50:37.229Z,13.38
2019-04-16T14:53:04.023Z,14.93
2019-04-16T14:55:35.519Z,12.28
2019-04-16T14:58:07.045Z,13.40
2019-04-16T15:00:35.921Z,15.80
2019-04-16T15:03:04.710Z,12.23
2019-04-16T15:05:33.330Z,12.20
2019-04-16T15:08:02.142Z,13.80
2019-04-16T15:10:36.460Z,12.63
2019-04-16T15:13:16.923Z,14.58
2019-04-16T15:15:46.235Z,10.65
2019-04-16T15:18:20.781Z,9.65
2019-04-16T15:20:52.335Z,12.05
2019-04-16T15:23:24.066Z,13.65
2019-04-16T15:25:52.726Z,13.98
2019-04-16T15:28:21.444Z,12.63
2019-04-16T15:30:49.970Z,16.45
2019-04-16T15:33:35.772Z,13.50
2019-04-16T15:36:08.080Z,12.28
2019-04-16T15:38:53.112Z,13.55
2019-04-16T15:41:33.896Z,13.18
2019-04-16T15:44:02.590Z,15.25
2019-04-16T15:46:48.105Z,14.83
2019-04-16T15:49:32.170Z,26.10
2019-04-16T15:52:17.273Z,15.98
2019-04-16T15:54:45.967Z,12.23
2019-04-16T15:57:17.174Z,18.37
2019-04-16T15:59:46.855Z,18.23
2019-04-16T16:02:27.594Z,17.07
2019-04-16T16:04:56.295Z,12.23
2019-04-16T16:07:24.256Z,11.20
2019-04-16T16:10:13.799Z,9.93
2019-04-16T16:12:38.487Z,14.55
2019-04-16T16:15:09.021Z,15.48
2019-04-16T16:17:35.888Z,12.53
2019-04-16T16:20:09.681Z,14.45
2019-04-16T16:22:33.949Z,12.65
2019-04-16T16:25:00.853Z,17.10
2019-04-16T16:27:27.834Z,12.63
2019-04-16T16:29:54.744Z,13.30
2019-04-16T16:32:21.554Z,12.33
2019-04-16T16:34:48.411Z,14.07
2019-04-16T16:37:15.297Z,14.28
2019-04-16T16:39:42.085Z,11.68
2019-04-16T16:42:09.049Z,10.05
2019-04-16T16:44:35.948Z,11.75
2019-04-16T16:47:04.801Z,8.68
2019-04-16T16:49:31.646Z,9.55
2019-04-16T16:52:03.389Z,9.98
2019-04-16T16:54:30.128Z,12.15
2019-04-16T16:57:07.753Z,10.70
2019-04-16T16:59:47.190Z,12.03
2019-04-16T17:02:15.988Z,10.35
2019-04-16T17:04:44.643Z,11.08
2019-04-16T17:07:11.315Z,9.38
2019-04-16T17:09:38.130Z,11.40
2019-04-16T17:12:04.878Z,12.55
2019-04-16T17:14:36.423Z,10.10
2019-04-16T17:17:12.813Z,10.08
2019-04-16T17:19:29.845Z,15.83
2019-04-16T17:21:56.520Z,9.93
2019-04-16T17:24:23.336Z,9.43
2019-04-16T17:26:50.684Z,10.95
2019-04-16T17:29:17.563Z,9.98
2019-04-16T17:31:44.474Z,10.88
2019-04-16T17:34:11.313Z,11.45
2019-04-16T17:36:39.317Z,12.10
2019-04-16T17:39:09.082Z,10.78
2019-04-16T17:41:37.421Z,12.88
2019-04-16T17:44:08.645Z,12.45
2019-04-16T17:46:37.320Z,10.33
2019-04-16T17:49:05.983Z,10.43
2019-04-16T17:51:34.756Z,11.05
2019-04-16T17:54:09.545Z,10.50
2019-04-16T17:56:38.218Z,10.08
2019-04-16T17:59:16.035Z,10.88
2019-04-16T18:01:47.792Z,13.53
2019-04-16T18:04:34.266Z,13.62
2019-04-16T18:07:18.007Z,11.00
2019-04-16T18:10:00.127Z,13.18
2019-04-16T18:12:34.796Z,12.40
2019-04-16T18:15:08.953Z,10.88
2019-04-16T18:17:47.026Z,11.97
2019-04-16T18:20:22.290Z,13.68
2019-04-16T18:22:53.797Z,12.37
2019-04-16T18:25:38.544Z,11.50
2019-04-16T18:28:13.127Z,10.93
2019-04-16T18:30:47.350Z,9.35
2019-04-16T18:33:33.902Z,13.78
2019-04-16T18:36:05.518Z,10.63
2019-04-16T18:38:50.783Z,11.15
2019-04-16T18:41:19.450Z,12.07
2019-04-16T18:43:53.764Z,13.58
2019-04-16T18:46:22.560Z,10.35
2019-04-16T18:48:55.028Z,8.58
2019-04-16T18:51:23.915Z,13.18
2019-04-16T18:53:50.804Z,10.15
2019-04-16T18:56:17.699Z,12.15
2019-04-16T18:58:44.471Z,10.58
2019-04-16T19:01:19.289Z,15.53
2019-04-16T19:03:46.185Z,11.28
2019-04-16T19:06:13.247Z,13.10
2019-04-16T19:08:41.868Z,13.48
2019-04-16T19:11:08.524Z,12.23
2019-04-16T19:13:35.273Z,14.53
2019-04-16T19:16:02.060Z,14.65
2019-04-16T19:18:29.027Z,12.58
2019-04-16T19:20:55.821Z,9.65
2019-04-16T19:23:22.703Z,12.07
2019-04-16T19:25:51.851Z,11.97
2019-04-16T19:28:20.179Z,14.80
2019-04-16T19:30:47.381Z,16.00
2019-04-16T19:33:14.091Z,15.40
2019-04-16T19:35:41.963Z,15.90
2019-04-16T19:38:08.812Z,18.20
2019-04-16T19:40:35.453Z,13.55
2019-04-16T19:43:03.154Z,13.50
2019-04-16T19:45:31.425Z,13.95
2019-04-16T19:48:00.826Z,17.55
2019-04-16T19:50:33.198Z,20.90
2019-04-16T19:52:55.879Z,14.63
2019-04-16T19:55:22.762Z,19.00
2019-04-16T19:57:49.615Z,16.82
2019-04-16T20:00:21.991Z,15.45
2019-04-16T20:02:45.168Z,15.00
2019-04-16T20:05:15.350Z,12.65
2019-04-16T20:07:41.618Z,13.32
2019-04-16T20:10:08.625Z,13.93
2019-04-16T20:12:35.500Z,14.85
2019-04-16T20:15:07.738Z,12.20
2019-04-16T20:17:30.957Z,10.50
2019-04-16T20:19:58.140Z,15.50
2019-04-16T20:22:27.547Z,12.35
2019-04-16T20:24:54.286Z,12.43
2019-04-16T20:27:21.026Z,13.05
2019-04-16T20:29:47.963Z,10.60
2019-04-16T20:32:14.863Z,12.13
2019-04-16T20:34:42.329Z,13.30
2019-04-16T20:37:11.319Z,12.45
2019-04-16T20:39:40.733Z,11.45
2019-04-16T20:42:06.745Z,16.30
2019-04-16T20:44:33.613Z,11.65
2019-04-16T20:47:03.348Z,11.85
2019-04-16T20:49:28.878Z,13.58
2019-04-16T20:51:59.991Z,13.28
2019-04-16T20:54:24.323Z,12.73
2019-04-16T20:56:53.319Z,15.80
2019-04-16T20:59:19.732Z,15.63
2019-04-16T21:01:46.496Z,13.78
2019-04-16T21:04:13.360Z,15.45
2019-04-16T21:06:41.953Z,12.58
2019-04-16T21:09:08.926Z,12.40
2019-04-16T21:11:40.881Z,16.55
2019-04-16T21:14:06.128Z,14.80
2019-04-16T21:16:33.929Z,14.45
2019-04-16T21:19:01.664Z,12.90
2019-04-16T21:21:29.487Z,15.35
2019-04-16T21:23:56.149Z,13.88
2019-04-16T21:26:23.130Z,12.33
2019-04-16T21:28:51.713Z,13.20
2019-04-16T21:31:20.363Z,16.50
2019-04-16T21:34:03.815Z,12.23
2019-04-16T21:36:33.885Z,14.83
2019-04-16T21:39:09.174Z,15.95
2019-04-16T21:41:37.839Z,13.58
2019-04-16T21:44:04.504Z,14.68
2019-04-16T21:46:31.274Z,13.90
2019-04-16T21:48:59.792Z,15.32
2019-04-16T21:51:26.778Z,14.87
2019-04-16T21:53:53.574Z,14.47
2019-04-16T21:56:20.337Z,14.18
2019-04-16T21:58:50.125Z,12.65
2019-04-16T22:01:17.644Z,12.75
2019-04-16T22:03:46.334Z,12.70
2019-04-16T22:06:13.220Z,15.53
2019-04-16T22:08:40.218Z,13.43
2019-04-16T22:11:08.529Z,14.25
2019-04-16T22:13:35.544Z,12.98
2019-04-16T22:16:02.716Z,14.73
2019-04-16T22:18:29.423Z,14.75
2019-04-16T22:20:56.129Z,13.30
2019-04-16T22:23:22.985Z,13.18
2019-04-16T22:25:49.681Z,14.05
2019-04-16T22:28:16.340Z,13.13
2019-04-16T22:30:43.328Z,14.55
2019-04-16T22:33:10.230Z,12.80
2019-04-16T22:35:37.107Z,14.80
2019-04-16T22:38:03.771Z,13.85
2019-04-16T22:40:32.702Z,11.88
2019-04-16T22:43:06.876Z,16.50
2019-04-16T22:45:31.754Z,14.30
2019-04-16T22:47:58.693Z,15.85
2019-04-16T22:50:25.640Z,12.80
2019-04-16T22:52:52.392Z,15.85
2019-04-16T22:55:24.570Z,13.13
2019-04-16T22:57:47.852Z,16.20
2019-04-16T23:00:16.613Z,16.15
2019-04-16T23:02:48.294Z,14.65
2019-04-16T23:05:14.229Z,13.22
2019-04-16T23:07:40.904Z,14.87
2019-04-16T23:10:08.008Z,14.10
2019-04-16T23:12:34.832Z,16.45
2019-04-16T23:15:01.780Z,15.68
2019-04-16T23:17:28.903Z,17.00
2019-04-16T23:19:55.707Z,15.32
2019-04-16T23:22:22.491Z,15.28
2019-04-16T23:24:51.784Z,15.83
2019-04-16T23:27:17.767Z,13.05
2019-04-16T23:29:47.295Z,14.35
2019-04-16T23:32:13.219Z,12.75
2019-04-16T23:34:39.975Z,16.62
2019-04-16T23:37:06.651Z,14.73
2019-04-16T23:39:33.576Z,15.72
2019-04-16T23:42:02.011Z,15.32
2019-04-16T23:44:30.582Z,13.35
2019-04-16T23:47:15.675Z,18.07
2019-04-16T23:49:48.229Z,15.40
2019-04-16T23:52:16.918Z,18.05
2019-04-16T23:54:54.126Z,16.70
2019-04-16T23:57:25.635Z,19.12
